createdAt,value
2018-01-04T00:00:11.116Z,0
2018-01-04T00:01:32.716Z,0
2018-01-04T00:02:54.633Z,0
2018-01-04T00:04:16.343Z,0
2018-01-04T00:05:37.946Z,0
2018-01-04T00:06:59.950Z,0
2018-01-04T00:08:21.812Z,0
2018-01-04T00:09:44.008Z,0
2018-01-04T00:11:05.947Z,0
2018-01-04T00:12:27.648Z,0
2018-01-04T00:13:49.635Z,0
2018-01-04T00:15:11.539Z,0
2018-01-04T00:16:33.617Z,0
2018-01-04T00:17:55.887Z,0
2018-01-04T00:19:18.052Z,0
2018-01-04T00:20:40.196Z,0
2018-01-04T00:22:02.341Z,0
2018-01-04T00:23:24.520Z,0
2018-01-04T00:24:46.490Z,0
2018-01-04T00:26:08.361Z,0
2018-01-04T00:27:30.336Z,0
2018-01-04T00:28:52.474Z,0
2018-01-04T00:30:14.600Z,0
2018-01-04T00:31:36.859Z,0
2018-01-04T00:32:58.738Z,0
2018-01-04T00:34:20.616Z,0
2018-01-04T00:35:42.486Z,0
2018-01-04T00:37:03.885Z,0
2018-01-04T00:38:26.063Z,0
2018-01-04T00:39:47.783Z,0
2018-01-04T00:41:09.685Z,0
2018-01-04T00:42:31.817Z,0
2018-01-04T00:43:53.954Z,0
2018-01-04T00:45:15.576Z,0
2018-01-04T00:46:37.485Z,0
2018-01-04T00:47:59.361Z,0
2018-01-04T00:49:21.215Z,0
2018-01-04T00:50:43.474Z,0
2018-01-04T00:52:05.351Z,0
2018-01-04T00:53:27.320Z,0
2018-01-04T00:54:49.454Z,0
2018-01-04T00:56:11.316Z,0
2018-01-04T00:57:33.187Z,0
2018-01-04T00:58:54.799Z,0
2018-01-04T01:00:16.712Z,0
2018-01-04T01:01:38.317Z,0
2018-01-04T01:02:59.670Z,0
2018-01-04T01:04:21.547Z,0
2018-01-04T01:05:43.857Z,0
2018-01-04T01:07:05.733Z,0
2018-01-04T01:08:27.500Z,0
2018-01-04T01:09:49.458Z,0
2018-01-04T01:11:11.336Z,0
2018-01-04T01:12:32.942Z,0
2018-01-04T01:13:55.110Z,0
2018-01-04T01:15:17.251Z,0
2018-01-04T01:16:39.222Z,0
2018-01-04T01:18:01.209Z,0
2018-01-04T01:19:23.212Z,0
2018-01-04T01:20:45.456Z,0
2018-01-04T01:22:07.130Z,0
2018-01-04T01:23:28.995Z,0
2018-01-04T01:24:50.888Z,0
2018-01-04T01:26:12.847Z,0
2018-01-04T01:27:34.562Z,0
2018-01-04T01:28:56.688Z,0
2018-01-04T01:30:18.564Z,0
2018-01-04T01:31:40.842Z,0
2018-01-04T01:33:02.203Z,0
2018-01-04T01:34:23.596Z,0
2018-01-04T01:35:45.732Z,0
2018-01-04T01:37:07.857Z,0
2018-01-04T01:38:30.124Z,0
2018-01-04T01:39:51.977Z,0
2018-01-04T01:41:14.117Z,0
2018-01-04T01:42:36.100Z,0
2018-01-04T01:43:58.234Z,0
2018-01-04T01:45:19.818Z,0
2018-01-04T01:46:42.031Z,0
2018-01-04T01:48:04.181Z,0
2018-01-04T01:49:26.086Z,0
2018-01-04T01:50:47.318Z,0
2018-01-04T01:52:09.437Z,0
2018-01-04T01:53:31.473Z,0
2018-01-04T01:54:52.818Z,0
2018-01-04T01:56:14.666Z,0
2018-01-04T01:57:36.537Z,0
2018-01-04T01:58:58.585Z,0
2018-01-04T02:00:20.816Z,0
2018-01-04T02:01:42.417Z,0
2018-01-04T02:03:03.807Z,0
2018-01-04T02:04:25.954Z,0
2018-01-04T02:05:48.080Z,0
2018-01-04T02:07:10.198Z,0
2018-01-04T02:08:32.357Z,0
2018-01-04T02:09:54.498Z,0
2018-01-04T02:11:16.366Z,0
2018-01-04T02:12:38.489Z,0
2018-01-04T02:14:00.378Z,0
2018-01-04T02:15:22.254Z,0
2018-01-04T02:16:44.392Z,0
2018-01-04T02:18:05.998Z,0
2018-01-04T02:19:27.911Z,0
2018-01-04T02:20:49.769Z,0
2018-01-04T02:22:11.871Z,0
2018-01-04T02:23:33.648Z,0
2018-01-04T02:24:55.529Z,0
2018-01-04T02:26:17.657Z,0
2018-01-04T02:27:39.780Z,0
2018-01-04T02:29:01.912Z,0
2018-01-04T02:30:23.793Z,0
2018-01-04T02:31:45.683Z,0
2018-01-04T02:33:07.683Z,0
2018-01-04T02:34:29.821Z,0
2018-01-04T02:35:51.719Z,0
2018-01-04T02:37:13.591Z,0
2018-01-04T02:38:35.506Z,0
2018-01-04T02:39:57.126Z,0
2018-01-04T02:41:18.209Z,0
2018-01-04T02:42:40.090Z,0
2018-01-04T02:44:01.697Z,0
2018-01-04T02:45:23.134Z,0
2018-01-04T02:46:45.013Z,0
2018-01-04T02:48:06.653Z,0
2018-01-04T02:49:28.832Z,0
2018-01-04T02:50:51.222Z,0
2018-01-04T02:52:13.088Z,0
2018-01-04T02:53:34.690Z,0
2018-01-04T02:54:56.821Z,0
2018-01-04T02:56:18.714Z,0
2018-01-04T02:57:40.371Z,0
2018-01-04T02:59:02.251Z,0
2018-01-04T03:00:24.371Z,0
2018-01-04T03:01:46.247Z,0
2018-01-04T03:03:07.697Z,0
2018-01-04T03:04:29.668Z,0
2018-01-04T03:05:51.555Z,0
2018-01-04T03:07:13.173Z,0
2018-01-04T03:08:35.034Z,0
2018-01-04T03:09:56.652Z,0
2018-01-04T03:11:17.997Z,0
2018-01-04T03:12:39.615Z,0
2018-01-04T03:14:01.782Z,0
2018-01-04T03:15:23.417Z,0
2018-01-04T03:16:45.042Z,0
2018-01-04T03:18:06.899Z,0
2018-01-04T03:19:28.496Z,0
2018-01-04T03:20:50.128Z,0
2018-01-04T03:22:12.238Z,0
2018-01-04T03:23:33.560Z,0
2018-01-04T03:24:55.754Z,0
2018-01-04T03:26:17.878Z,0
2018-01-04T03:27:39.479Z,0
2018-01-04T03:29:01.096Z,0
2018-01-04T03:30:22.462Z,0
2018-01-04T03:31:44.792Z,0
2018-01-04T03:33:06.929Z,0
2018-01-04T03:34:28.779Z,0
2018-01-04T03:35:50.742Z,0
2018-01-04T03:37:12.598Z,0
2018-01-04T03:38:34.480Z,0
2018-01-04T03:39:56.336Z,0
2018-01-04T03:41:17.658Z,0
2018-01-04T03:42:39.551Z,0
2018-01-04T03:44:01.157Z,0
2018-01-04T03:45:23.008Z,0
2018-01-04T03:46:45.117Z,0
2018-01-04T03:48:06.730Z,0
2018-01-04T03:49:28.428Z,0
2018-01-04T03:50:50.436Z,0
2018-01-04T03:52:12.061Z,0
2018-01-04T03:53:33.929Z,0
2018-01-04T03:54:56.080Z,0
2018-01-04T03:56:18.330Z,0
2018-01-04T03:57:40.470Z,0
2018-01-04T03:59:02.331Z,0
2018-01-04T04:00:24.549Z,0
2018-01-04T04:01:46.402Z,0
2018-01-04T04:03:08.508Z,0
2018-01-04T04:04:30.123Z,0
2018-01-04T04:05:52.141Z,0
2018-01-04T04:07:13.757Z,0
2018-01-04T04:08:35.901Z,0
2018-01-04T04:09:57.800Z,0
2018-01-04T04:11:19.438Z,0
2018-01-04T04:12:41.211Z,0
2018-01-04T04:14:03.085Z,0
2018-01-04T04:15:24.428Z,0
2018-01-04T04:16:46.628Z,0
2018-01-04T04:18:08.478Z,0
2018-01-04T04:19:30.074Z,0
2018-01-04T04:20:51.774Z,0
2018-01-04T04:22:13.389Z,0
2018-01-04T04:23:35.252Z,0
2018-01-04T04:24:57.009Z,0
2018-01-04T04:26:19.172Z,0
2018-01-04T04:27:41.281Z,0
2018-01-04T04:29:03.124Z,0
2018-01-04T04:30:24.462Z,0
2018-01-04T04:31:46.580Z,0
2018-01-04T04:33:08.581Z,0
2018-01-04T04:34:30.492Z,0
2018-01-04T04:35:52.639Z,0
2018-01-04T04:37:14.501Z,0
2018-01-04T04:38:36.376Z,0
2018-01-04T04:39:57.733Z,0
2018-01-04T04:41:19.725Z,0
2018-01-04T04:42:41.599Z,0
2018-01-04T04:44:02.943Z,0
2018-01-04T04:45:24.788Z,0
2018-01-04T04:46:46.208Z,0
2018-01-04T04:48:08.380Z,0
2018-01-04T04:49:30.257Z,0
2018-01-04T04:50:51.869Z,0
2018-01-04T04:52:13.998Z,0
2018-01-04T04:53:35.418Z,0
2018-01-04T04:54:57.283Z,0
2018-01-04T04:56:19.170Z,0
2018-01-04T04:57:40.767Z,0
2018-01-04T04:59:02.739Z,0
2018-01-04T05:00:24.369Z,0
2018-01-04T05:01:46.048Z,0
2018-01-04T05:03:07.657Z,0
2018-01-04T05:04:28.559Z,0
2018-01-04T05:05:50.158Z,0
2018-01-04T05:07:11.827Z,0
2018-01-04T05:08:32.921Z,0
2018-01-04T05:09:55.148Z,0
2018-01-04T05:11:17.595Z,0
2018-01-04T05:12:39.057Z,0
2018-01-04T05:14:00.469Z,0
2018-01-04T05:15:21.857Z,0
2018-01-04T05:16:43.469Z,0
2018-01-04T05:18:05.582Z,0
2018-01-04T05:19:27.844Z,0
2018-01-04T05:20:49.442Z,0
2018-01-04T05:22:11.701Z,0
2018-01-04T05:23:32.994Z,0
2018-01-04T05:24:54.389Z,0
2018-01-04T05:26:15.730Z,0
2018-01-04T05:27:37.136Z,0
2018-01-04T05:28:59.365Z,0
2018-01-04T05:30:21.040Z,0
2018-01-04T05:31:42.833Z,0
2018-01-04T05:33:05.006Z,0
2018-01-04T05:34:27.281Z,0
2018-01-04T05:35:49.035Z,0
2018-01-04T05:37:10.421Z,0
2018-01-04T05:38:31.758Z,0
2018-01-04T05:39:53.879Z,0
2018-01-04T05:41:15.765Z,0
2018-01-04T05:42:37.685Z,0
2018-01-04T05:43:58.765Z,0
2018-01-04T05:45:20.370Z,0
2018-01-04T05:46:42.595Z,0
2018-01-04T05:48:04.469Z,0
2018-01-04T05:49:26.058Z,0
2018-01-04T05:50:47.653Z,0
2018-01-04T05:52:09.758Z,0
2018-01-04T05:53:31.696Z,0
2018-01-04T05:54:53.557Z,0
2018-01-04T05:56:14.885Z,0
2018-01-04T05:57:36.529Z,0
2018-01-04T05:58:57.355Z,0
2018-01-04T06:00:19.227Z,0
2018-01-04T06:01:41.259Z,0
2018-01-04T06:03:02.901Z,0
2018-01-04T06:04:24.768Z,0
2018-01-04T06:05:46.126Z,0
2018-01-04T06:07:08.308Z,0
2018-01-04T06:08:30.200Z,0
2018-01-04T06:09:52.139Z,0
2018-01-04T06:11:14.274Z,0
2018-01-04T06:12:36.382Z,0
2018-01-04T06:13:57.973Z,0
2018-01-04T06:15:19.848Z,0
2018-01-04T06:16:41.726Z,0
2018-01-04T06:18:03.378Z,0
2018-01-04T06:19:24.973Z,0
2018-01-04T06:20:46.825Z,0
2018-01-04T06:22:08.796Z,0
2018-01-04T06:23:30.955Z,0
2018-01-04T06:24:52.300Z,0
2018-01-04T06:26:13.912Z,0
2018-01-04T06:27:35.869Z,0
2018-01-04T06:28:57.508Z,0
2018-01-04T06:30:19.184Z,0
2018-01-04T06:31:41.056Z,0
2018-01-04T06:33:02.128Z,0
2018-01-04T06:34:23.915Z,0
2018-01-04T06:35:45.290Z,0
2018-01-04T06:37:07.466Z,0
2018-01-04T06:38:29.580Z,0
2018-01-04T06:39:53.007Z,0
2018-01-04T06:41:14.649Z,0
2018-01-04T06:42:36.540Z,0
2018-01-04T06:43:58.178Z,0
2018-01-04T06:45:19.284Z,0
2018-01-04T06:46:41.467Z,0
2018-01-04T06:48:03.795Z,0
2018-01-04T06:49:24.875Z,0
2018-01-04T06:50:46.284Z,0
2018-01-04T06:52:08.133Z,0
2018-01-04T06:53:30.229Z,0
2018-01-04T06:54:51.830Z,0
2018-01-04T06:56:13.997Z,0
2018-01-04T06:57:35.918Z,0
2018-01-04T06:58:57.804Z,0
2018-01-04T07:00:19.767Z,0
2018-01-04T07:01:41.118Z,4
2018-01-04T07:03:02.717Z,4
2018-01-04T07:04:24.320Z,4
2018-01-04T07:05:46.450Z,0
2018-01-04T07:07:08.572Z,4
2018-01-04T07:08:30.445Z,8
2018-01-04T07:09:52.402Z,4
2018-01-04T07:11:14.258Z,4
2018-01-04T07:12:35.804Z,12
2018-01-04T07:13:57.946Z,12
2018-01-04T07:15:19.547Z,20
2018-01-04T07:16:41.546Z,20
2018-01-04T07:18:03.463Z,24
2018-01-04T07:19:25.407Z,24
2018-01-04T07:20:47.077Z,28
2018-01-04T07:22:09.056Z,32
2018-01-04T07:23:30.983Z,32
2018-01-04T07:24:52.334Z,36
2018-01-04T07:26:14.213Z,64
2018-01-04T07:27:35.825Z,88
2018-01-04T07:28:57.480Z,76
2018-01-04T07:30:19.766Z,80
2018-01-04T07:31:41.626Z,72
2018-01-04T07:33:03.872Z,80
2018-01-04T07:34:25.546Z,96
2018-01-04T07:35:47.456Z,132
2018-01-04T07:37:09.315Z,164
2018-01-04T07:38:30.661Z,172
2018-01-04T07:39:52.512Z,204
2018-01-04T07:41:14.112Z,164
2018-01-04T07:42:36.465Z,112
2018-01-04T07:43:57.905Z,136
2018-01-04T07:45:20.080Z,192
2018-01-04T07:46:42.245Z,252
2018-01-04T07:48:04.637Z,332
2018-01-04T07:49:26.557Z,412
2018-01-04T07:50:48.746Z,440
2018-01-04T07:52:10.681Z,412
2018-01-04T07:53:32.114Z,436
2018-01-04T07:54:54.013Z,496
2018-01-04T07:56:15.884Z,572
2018-01-04T07:57:37.752Z,640
2018-01-04T07:58:59.685Z,572
2018-01-04T08:00:21.846Z,400
2018-01-04T08:01:43.770Z,464
2018-01-04T08:03:05.635Z,536
2018-01-04T08:04:27.476Z,672
2018-01-04T08:05:49.354Z,692
2018-01-04T08:07:11.321Z,788
2018-01-04T08:08:32.931Z,808
2018-01-04T08:09:54.526Z,528
2018-01-04T08:11:16.659Z,412
2018-01-04T08:12:38.271Z,404
2018-01-04T08:13:59.874Z,564
2018-01-04T08:15:21.554Z,576
2018-01-04T08:16:43.550Z,516
2018-01-04T08:18:05.485Z,576
2018-01-04T08:19:27.352Z,580
2018-01-04T08:20:48.723Z,780
2018-01-04T08:22:10.415Z,1020
2018-01-04T08:23:32.599Z,1228
2018-01-04T08:24:54.737Z,1300
2018-01-04T08:26:16.774Z,1060
2018-01-04T08:27:38.726Z,908
2018-01-04T08:29:00.865Z,624
2018-01-04T08:30:23.018Z,804
2018-01-04T08:31:45.177Z,860
2018-01-04T08:33:07.331Z,1212
2018-01-04T08:34:29.176Z,1296
2018-01-04T08:35:51.315Z,1064
2018-01-04T08:37:12.924Z,852
2018-01-04T08:38:34.819Z,952
2018-01-04T08:39:56.186Z,980
2018-01-04T08:41:18.068Z,1228
2018-01-04T08:42:39.688Z,1452
2018-01-04T08:44:01.867Z,1472
2018-01-04T08:45:23.778Z,1476
2018-01-04T08:46:45.807Z,1548
2018-01-04T08:48:07.944Z,1664
2018-01-04T08:49:29.565Z,1892
2018-01-04T08:50:51.261Z,2036
2018-01-04T08:52:12.948Z,1992
2018-01-04T08:53:34.624Z,1708
2018-01-04T08:54:56.279Z,1584
2018-01-04T08:56:18.214Z,1604
2018-01-04T08:57:39.839Z,1432
2018-01-04T08:59:01.782Z,1068
2018-01-04T09:00:23.916Z,1212
2018-01-04T09:01:45.267Z,1132
2018-01-04T09:03:07.408Z,1280
2018-01-04T09:04:29.058Z,1040
2018-01-04T09:05:50.689Z,1048
2018-01-04T09:07:12.897Z,1056
2018-01-04T09:08:34.889Z,1252
2018-01-04T09:09:56.893Z,1704
2018-01-04T09:11:18.777Z,1896
2018-01-04T09:12:40.542Z,2052
2018-01-04T09:14:02.684Z,2096
2018-01-04T09:15:24.573Z,2208
2018-01-04T09:16:46.687Z,2020
2018-01-04T09:18:08.127Z,2104
2018-01-04T09:19:29.981Z,1904
2018-01-04T09:20:51.859Z,1896
2018-01-04T09:22:13.486Z,1948
2018-01-04T09:23:35.364Z,2056
2018-01-04T09:24:57.213Z,2208
2018-01-04T09:26:18.357Z,2180
2018-01-04T09:27:40.285Z,2200
2018-01-04T09:29:02.491Z,2368
2018-01-04T09:30:24.155Z,2576
2018-01-04T09:31:45.759Z,2444
2018-01-04T09:33:07.628Z,2468
2018-01-04T09:34:29.926Z,2196
2018-01-04T09:35:51.804Z,1972
2018-01-04T09:37:13.796Z,1996
2018-01-04T09:38:35.674Z,2576
2018-01-04T09:39:57.549Z,2792
2018-01-04T09:41:19.470Z,2752
2018-01-04T09:42:41.060Z,2676
2018-01-04T09:44:02.681Z,2708
2018-01-04T09:45:24.924Z,2668
2018-01-04T09:46:47.058Z,2780
2018-01-04T09:48:09.195Z,3228
2018-01-04T09:49:31.315Z,2912
2018-01-04T09:50:53.188Z,3292
2018-01-04T09:52:15.085Z,2836
2018-01-04T09:53:36.963Z,3380
2018-01-04T09:54:59.087Z,3528
2018-01-04T09:56:21.011Z,3700
2018-01-04T09:57:42.948Z,3444
2018-01-04T09:59:04.670Z,4220
2018-01-04T10:00:26.838Z,4424
2018-01-04T10:01:48.236Z,4204
2018-01-04T10:03:10.415Z,4120
2018-01-04T10:04:32.533Z,4352
2018-01-04T10:05:54.523Z,4436
2018-01-04T10:07:16.412Z,4960
2018-01-04T10:08:37.754Z,6036
2018-01-04T10:09:59.913Z,4664
2018-01-04T10:11:21.527Z,6356
2018-01-04T10:12:43.163Z,6592
2018-01-04T10:14:04.753Z,6780
2018-01-04T10:15:26.629Z,7680
2018-01-04T10:16:48.397Z,6936
2018-01-04T10:18:10.525Z,6284
2018-01-04T10:19:32.519Z,6140
2018-01-04T10:20:54.713Z,6336
2018-01-04T10:22:16.332Z,6492
2018-01-04T10:23:38.319Z,5956
2018-01-04T10:25:00.467Z,6212
2018-01-04T10:26:22.346Z,6132
2018-01-04T10:27:44.271Z,5816
2018-01-04T10:29:06.218Z,5436
2018-01-04T10:30:28.112Z,4660
2018-01-04T10:31:49.757Z,4208
2018-01-04T10:33:12.027Z,4120
2018-01-04T10:34:33.902Z,3912
2018-01-04T10:35:55.323Z,4380
2018-01-04T10:37:17.200Z,4620
2018-01-04T10:38:39.058Z,4692
2018-01-04T10:40:00.923Z,4628
2018-01-04T10:41:23.083Z,3672
2018-01-04T10:42:45.226Z,3456
2018-01-04T10:44:07.209Z,3272
2018-01-04T10:45:29.099Z,3900
2018-01-04T10:46:51.005Z,4308
2018-01-04T10:48:12.946Z,4084
2018-01-04T10:49:34.870Z,4256
2018-01-04T10:50:57.048Z,3940
2018-01-04T10:52:18.738Z,3356
2018-01-04T10:53:40.956Z,3484
2018-01-04T10:55:03.103Z,3500
2018-01-04T10:56:25.242Z,3460
2018-01-04T10:57:47.463Z,3876
2018-01-04T10:59:09.371Z,3268
2018-01-04T11:00:31.374Z,3920
2018-01-04T11:01:52.793Z,4264
2018-01-04T11:03:15.032Z,4468
2018-01-04T11:04:37.177Z,4076
2018-01-04T11:05:59.333Z,4384
2018-01-04T11:07:20.973Z,4404
2018-01-04T11:08:42.446Z,4288
2018-01-04T11:10:04.412Z,4056
2018-01-04T11:11:26.061Z,3924
2018-01-04T11:12:47.816Z,4236
2018-01-04T11:14:08.918Z,4272
2018-01-04T11:15:31.123Z,4192
2018-01-04T11:16:52.757Z,4020
2018-01-04T11:18:14.487Z,4216
2018-01-04T11:19:36.152Z,4668
2018-01-04T11:20:58.133Z,5176
2018-01-04T11:22:20.343Z,5052
2018-01-04T11:23:42.647Z,4680
2018-01-04T11:25:04.874Z,5120
2018-01-04T11:26:26.562Z,4696
2018-01-04T11:27:48.435Z,4652
2018-01-04T11:29:10.396Z,6072
2018-01-04T11:30:32.559Z,6680
2018-01-04T11:31:53.910Z,7404
2018-01-04T11:33:15.608Z,7332
2018-01-04T11:34:37.893Z,7572
2018-01-04T11:35:59.903Z,7784
2018-01-04T11:37:21.886Z,7620
2018-01-04T11:38:43.764Z,8024
2018-01-04T11:40:05.363Z,7956
2018-01-04T11:41:27.530Z,7576
2018-01-04T11:42:48.626Z,6844
2018-01-04T11:44:10.785Z,6384
2018-01-04T11:45:32.430Z,6532
2018-01-04T11:46:54.374Z,6248
2018-01-04T11:48:16.279Z,5528
2018-01-04T11:49:38.513Z,5016
2018-01-04T11:51:00.401Z,4688
2018-01-04T11:52:22.572Z,4568
2018-01-04T11:53:44.506Z,4616
2018-01-04T11:55:06.645Z,4972
2018-01-04T11:56:28.254Z,4800
2018-01-04T11:57:50.195Z,4656
2018-01-04T11:59:12.118Z,4404
2018-01-04T12:00:34.282Z,4284
2018-01-04T12:01:55.644Z,4064
2018-01-04T12:03:17.608Z,3856
2018-01-04T12:04:39.725Z,3940
2018-01-04T12:06:01.603Z,4000
2018-01-04T12:07:23.473Z,4076
2018-01-04T12:08:45.787Z,4356
2018-01-04T12:10:07.430Z,4552
2018-01-04T12:11:29.689Z,4756
2018-01-04T12:12:51.991Z,5436
2018-01-04T12:14:13.888Z,7056
2018-01-04T12:15:35.838Z,7144
2018-01-04T12:16:58.045Z,6420
2018-01-04T12:18:20.184Z,7276
2018-01-04T12:19:42.059Z,6936
2018-01-04T12:21:03.679Z,5336
2018-01-04T12:22:25.835Z,5660
2018-01-04T12:23:47.752Z,5016
2018-01-04T12:25:09.677Z,3504
2018-01-04T12:26:31.644Z,3468
2018-01-04T12:27:53.320Z,3816
2018-01-04T12:29:15.456Z,3692
2018-01-04T12:30:37.326Z,3540
2018-01-04T12:31:59.555Z,3360
2018-01-04T12:33:21.673Z,3212
2018-01-04T12:34:43.295Z,3080
2018-01-04T12:36:05.194Z,2932
2018-01-04T12:37:27.331Z,2608
2018-01-04T12:38:49.193Z,2804
2018-01-04T12:40:11.467Z,3112
2018-01-04T12:41:33.341Z,3256
2018-01-04T12:42:54.956Z,3416
2018-01-04T12:44:16.805Z,3192
2018-01-04T12:45:38.415Z,2972
2018-01-04T12:47:00.098Z,2324
2018-01-04T12:48:22.329Z,3036
2018-01-04T12:49:43.982Z,2720
2018-01-04T12:51:06.144Z,2048
2018-01-04T12:52:28.275Z,2172
2018-01-04T12:53:50.302Z,2112
2018-01-04T12:55:11.685Z,2000
2018-01-04T12:56:33.563Z,1924
2018-01-04T12:57:55.834Z,2104
2018-01-04T12:59:17.443Z,2168
2018-01-04T13:00:39.313Z,2180
2018-01-04T13:02:01.213Z,1856
2018-01-04T13:03:23.096Z,1912
2018-01-04T13:04:44.274Z,1976
2018-01-04T13:06:05.834Z,2108
2018-01-04T13:07:27.995Z,2272
2018-01-04T13:08:50.162Z,2680
2018-01-04T13:10:12.037Z,2912
2018-01-04T13:11:34.183Z,2760
2018-01-04T13:12:56.373Z,2644
2018-01-04T13:14:17.991Z,2448
2018-01-04T13:15:40.235Z,1996
2018-01-04T13:17:02.157Z,1592
2018-01-04T13:18:24.063Z,1308
2018-01-04T13:19:46.277Z,1272
2018-01-04T13:21:08.160Z,1340
2018-01-04T13:22:30.050Z,1284
2018-01-04T13:23:52.246Z,1316
2018-01-04T13:25:14.530Z,1456
2018-01-04T13:26:36.694Z,1352
2018-01-04T13:27:58.859Z,1204
2018-01-04T13:29:20.745Z,1344
2018-01-04T13:30:42.657Z,1208
2018-01-04T13:32:04.257Z,1216
2018-01-04T13:33:26.404Z,1008
2018-01-04T13:34:48.863Z,936
2018-01-04T13:36:11.036Z,852
2018-01-04T13:37:32.917Z,736
2018-01-04T13:38:54.293Z,696
2018-01-04T13:40:16.165Z,704
2018-01-04T13:41:37.861Z,684
2018-01-04T13:42:59.215Z,580
2018-01-04T13:44:21.115Z,480
2018-01-04T13:45:43.036Z,424
2018-01-04T13:47:04.398Z,448
2018-01-04T13:48:26.330Z,552
2018-01-04T13:49:48.269Z,424
2018-01-04T13:51:10.476Z,300
2018-01-04T13:52:32.414Z,272
2018-01-04T13:53:54.104Z,252
2018-01-04T13:55:16.352Z,212
2018-01-04T13:56:37.996Z,212
2018-01-04T13:57:59.957Z,192
2018-01-04T13:59:22.164Z,252
2018-01-04T14:00:44.055Z,232
2018-01-04T14:02:05.936Z,236
2018-01-04T14:03:27.892Z,220
2018-01-04T14:04:49.889Z,236
2018-01-04T14:06:11.845Z,264
2018-01-04T14:07:33.461Z,292
2018-01-04T14:08:55.452Z,308
2018-01-04T14:10:17.359Z,376
2018-01-04T14:11:38.985Z,452
2018-01-04T14:13:00.915Z,472
2018-01-04T14:14:22.535Z,468
2018-01-04T14:15:44.501Z,512
2018-01-04T14:17:05.890Z,492
2018-01-04T14:18:27.806Z,496
2018-01-04T14:19:49.981Z,512
2018-01-04T14:21:12.152Z,556
2018-01-04T14:22:34.036Z,576
2018-01-04T14:23:56.384Z,612
2018-01-04T14:25:18.451Z,668
2018-01-04T14:26:40.342Z,772
2018-01-04T14:28:02.266Z,876
2018-01-04T14:29:24.154Z,816
2018-01-04T14:30:46.295Z,800
2018-01-04T14:32:08.177Z,784
2018-01-04T14:33:30.062Z,788
2018-01-04T14:34:52.065Z,816
2018-01-04T14:36:14.088Z,836
2018-01-04T14:37:35.741Z,792
2018-01-04T14:38:57.619Z,728
2018-01-04T14:40:19.867Z,688
2018-01-04T14:41:41.726Z,680
2018-01-04T14:43:03.102Z,676
2018-01-04T14:44:25.273Z,668
2018-01-04T14:45:47.145Z,648
2018-01-04T14:47:09.286Z,632
2018-01-04T14:48:31.226Z,608
2018-01-04T14:49:53.382Z,580
2018-01-04T14:51:15.286Z,552
2018-01-04T14:52:37.176Z,528
2018-01-04T14:53:59.327Z,500
2018-01-04T14:55:21.597Z,460
2018-01-04T14:56:44.472Z,392
2018-01-04T14:58:06.428Z,336
2018-01-04T14:59:28.047Z,304
2018-01-04T15:00:50.193Z,284
2018-01-04T15:02:12.350Z,272
2018-01-04T15:03:34.515Z,264
2018-01-04T15:04:55.976Z,244
2018-01-04T15:06:18.138Z,224
2018-01-04T15:07:40.022Z,212
2018-01-04T15:09:01.927Z,192
2018-01-04T15:10:23.832Z,180
2018-01-04T15:11:45.444Z,164
2018-01-04T15:13:06.811Z,156
2018-01-04T15:14:29.091Z,148
2018-01-04T15:15:51.291Z,140
2018-01-04T15:17:13.437Z,132
2018-01-04T15:18:35.585Z,124
2018-01-04T15:19:57.518Z,116
2018-01-04T15:21:19.412Z,104
2018-01-04T15:22:41.626Z,96
2018-01-04T15:24:03.294Z,92
2018-01-04T15:25:25.452Z,84
2018-01-04T15:26:47.408Z,72
2018-01-04T15:28:09.147Z,64
2018-01-04T15:29:31.310Z,56
2018-01-04T15:30:53.224Z,48
2018-01-04T15:32:15.539Z,44
2018-01-04T15:33:37.717Z,36
2018-01-04T15:34:59.909Z,28
2018-01-04T15:36:21.786Z,28
2018-01-04T15:37:43.382Z,20
2018-01-04T15:39:05.548Z,20
2018-01-04T15:40:27.351Z,16
2018-01-04T15:41:48.718Z,12
2018-01-04T15:43:10.342Z,8
2018-01-04T15:44:32.517Z,12
2018-01-04T15:45:54.445Z,4
2018-01-04T15:47:15.536Z,8
2018-01-04T15:48:38.071Z,4
2018-01-04T15:50:31.513Z,4
2018-01-04T15:51:53.375Z,4
2018-01-04T15:53:15.017Z,4
2018-01-04T15:54:36.636Z,4
2018-01-04T15:55:58.536Z,0
2018-01-04T15:57:20.419Z,4
2018-01-04T15:58:42.050Z,0
2018-01-04T16:00:03.967Z,0
2018-01-04T16:01:25.884Z,0
2018-01-04T16:02:47.540Z,0
2018-01-04T16:04:09.177Z,0
2018-01-04T16:05:31.378Z,0
2018-01-04T16:06:52.733Z,0
2018-01-04T16:08:15.776Z,0
2018-01-04T16:09:37.488Z,0
2018-01-04T16:10:59.371Z,0
2018-01-04T16:12:21.016Z,0
2018-01-04T16:13:43.223Z,0
2018-01-04T16:15:04.606Z,0
2018-01-04T16:16:25.966Z,0
2018-01-04T16:17:48.129Z,0
2018-01-04T16:19:09.871Z,0
2018-01-04T16:20:31.250Z,0
2018-01-04T16:21:52.610Z,0
2018-01-04T16:23:14.231Z,0
2018-01-04T16:24:36.203Z,0
2018-01-04T16:25:57.615Z,0
2018-01-04T16:27:19.289Z,0
2018-01-04T16:28:40.663Z,0
2018-01-04T16:30:02.539Z,0
2018-01-04T16:31:24.172Z,0
2018-01-04T16:32:45.515Z,0
2018-01-04T16:34:07.398Z,0
2018-01-04T16:35:29.022Z,0
2018-01-04T16:36:50.646Z,0
2018-01-04T16:38:12.891Z,0
2018-01-04T16:39:34.552Z,0
2018-01-04T16:40:56.437Z,0
2018-01-04T16:42:18.055Z,0
2018-01-04T16:43:39.974Z,0
2018-01-04T16:45:01.865Z,0
2018-01-04T16:46:24.032Z,0
2018-01-04T16:47:46.190Z,0
2018-01-04T16:49:08.401Z,0
2018-01-04T16:50:30.298Z,0
2018-01-04T16:51:52.306Z,0
2018-01-04T16:53:14.464Z,0
2018-01-04T16:54:36.377Z,0
2018-01-04T16:55:58.371Z,0
2018-01-04T16:57:20.149Z,0
2018-01-04T16:58:42.047Z,0
2018-01-04T17:00:03.912Z,0
2018-01-04T17:01:25.842Z,0
2018-01-04T17:02:47.626Z,0
2018-01-04T17:04:09.259Z,0
2018-01-04T17:05:30.951Z,0
2018-01-04T17:06:53.226Z,0
2018-01-04T17:08:15.308Z,0
2018-01-04T17:09:37.517Z,0
2018-01-04T17:10:59.646Z,0
2018-01-04T17:12:21.307Z,0
2018-01-04T17:13:43.269Z,0
2018-01-04T17:15:05.466Z,0
2018-01-04T17:16:27.117Z,0
2018-01-04T17:17:48.452Z,0
2018-01-04T17:19:10.196Z,0
2018-01-04T17:20:32.436Z,0
2018-01-04T17:21:54.321Z,0
2018-01-04T17:23:16.613Z,0
2018-01-04T17:24:38.767Z,0
2018-01-04T17:26:00.761Z,0
2018-01-04T17:27:22.667Z,0
2018-01-04T17:28:44.925Z,0
2018-01-04T17:30:06.965Z,0
2018-01-04T17:31:29.105Z,0
2018-01-04T17:32:51.335Z,0
2018-01-04T17:34:13.279Z,0
2018-01-04T17:35:35.671Z,0
2018-01-04T17:36:57.847Z,0
2018-01-04T17:38:19.847Z,0
2018-01-04T17:39:41.782Z,0
2018-01-04T17:41:03.676Z,0
2018-01-04T17:42:25.317Z,0
2018-01-04T17:43:47.504Z,0
2018-01-04T17:45:09.409Z,0
2018-01-04T17:46:31.150Z,0
2018-01-04T17:47:52.782Z,0
2018-01-04T17:49:15.052Z,0
2018-01-04T17:50:37.083Z,0
2018-01-04T17:51:59.278Z,0
2018-01-04T17:53:21.357Z,0
2018-01-04T17:54:43.624Z,0
2018-01-04T17:56:05.568Z,0
2018-01-04T17:57:27.805Z,0
2018-01-04T17:58:49.714Z,0
2018-01-04T18:00:11.596Z,0
2018-01-04T18:01:33.538Z,0
2018-01-04T18:02:55.725Z,0
2018-01-04T18:04:17.876Z,0
2018-01-04T18:05:39.822Z,0
2018-01-04T18:07:02.100Z,0
2018-01-04T18:08:24.033Z,0
2018-01-04T18:09:45.923Z,0
2018-01-04T18:11:08.004Z,0
2018-01-04T18:12:29.905Z,0
2018-01-04T18:13:51.797Z,0
2018-01-04T18:15:13.685Z,0
2018-01-04T18:16:35.928Z,0
2018-01-04T18:17:57.880Z,0
2018-01-04T18:19:19.792Z,0
2018-01-04T18:20:41.772Z,0
2018-01-04T18:22:03.419Z,0
2018-01-04T18:23:25.686Z,0
2018-01-04T18:24:48.009Z,0
2018-01-04T18:26:09.957Z,0
2018-01-04T18:27:32.168Z,0
2018-01-04T18:28:54.506Z,0
2018-01-04T18:30:16.850Z,0
2018-01-04T18:31:39.333Z,0
2018-01-04T18:33:01.538Z,0
2018-01-04T18:34:23.748Z,0
2018-01-04T18:35:46.248Z,0
2018-01-04T18:37:08.835Z,0
2018-01-04T18:38:30.746Z,0
2018-01-04T18:39:52.437Z,0
2018-01-04T18:41:14.772Z,0
2018-01-04T18:42:36.835Z,0
2018-01-04T18:43:58.856Z,0
2018-01-04T18:45:20.803Z,0
2018-01-04T18:46:43.007Z,0
2018-01-04T18:48:04.908Z,0
2018-01-04T18:49:27.217Z,0
2018-01-04T18:50:49.376Z,0
2018-01-04T18:52:11.264Z,0
2018-01-04T18:53:33.623Z,0
2018-01-04T18:54:55.256Z,0
2018-01-04T18:56:17.879Z,0
2018-01-04T18:57:39.951Z,0
2018-01-04T18:59:02.144Z,0
2018-01-04T19:00:24.044Z,0
2018-01-04T19:01:46.211Z,0
2018-01-04T19:03:08.365Z,0
2018-01-04T19:04:30.048Z,0
2018-01-04T19:05:52.286Z,0
2018-01-04T19:07:14.185Z,12
2018-01-04T19:08:36.568Z,12
2018-01-04T19:09:58.717Z,0
2018-01-04T19:11:20.973Z,0
2018-01-04T19:12:43.158Z,0
2018-01-04T19:14:05.396Z,0
2018-01-04T19:15:27.652Z,0
2018-01-04T19:16:49.675Z,0
2018-01-04T19:18:11.771Z,0
2018-01-04T19:19:33.384Z,0
2018-01-04T19:20:55.328Z,0
2018-01-04T19:22:17.262Z,0
2018-01-04T19:23:39.507Z,0